Time,TemperatureF,DewpointF,PressureIn,WindDirection,WindDirectionDegrees,WindSpeedMPH,WindSpeedGustMPH,Humidity,HourlyPrecipIn,Conditions,Clouds,dailyrainin,SoftwareType,DateUTC
2013-07-24 00:02:00,86.0,60.3,27.34,SE,135,0.0,0.0,42,0.00,,,0.00,WUHU216HW,2013-07-24 07:02:00,
2013-07-24 00:07:00,85.9,59.5,27.34,SE,135,0.0,0.0,41,0.00,,,0.00,WUHU216HW,2013-07-24 07:07:00,
2013-07-24 00:12:00,85.7,59.9,27.34,SE,135,0.0,0.0,42,0.00,,,0.00,WUHU216HW,2013-07-24 07:12:00,
2013-07-24 00:17:00,85.3,59.7,27.34,SE,135,0.0,0.0,42,0.00,,,0.00,WUHU216HW,2013-07-24 07:17:00,
2013-07-24 00:22:00,85.3,59.7,27.35,WSW,248,0.0,0.0,42,0.00,,,0.00,WUHU216HW,2013-07-24 07:22:00,
2013-07-24 00:27:00,85.1,59.5,27.34,West,270,0.0,0.0,42,0.00,,,0.00,WUHU216HW,2013-07-24 07:27:00,
2013-07-24 00:32:00,85.0,59.3,27.35,NW,315,0.0,0.0,42,0.00,,,0.00,WUHU216HW,2013-07-24 07:32:00,
2013-07-24 00:37:00,85.0,59.9,27.35,North,0,0.9,0.9,43,0.00,,,0.00,WUHU216HW,2013-07-24 07:37:00,
2013-07-24 00:42:00,84.6,60.3,27.35,NNW,338,0.2,1.1,44,0.00,,,0.00,WUHU216HW,2013-07-24 07:42:00,
2013-07-24 00:47:00,84.6,60.3,27.35,SSW,203,1.1,1.1,44,0.00,,,0.00,WUHU216HW,2013-07-24 07:47:00,
2013-07-24 00:52:00,84.4,60.1,27.35,WSW,248,0.7,1.1,44,0.00,,,0.00,WUHU216HW,2013-07-24 07:52:00,
2013-07-24 00:57:00,84.4,60.1,27.35,West,270,0.0,0.9,44,0.00,,,0.00,WUHU216HW,2013-07-24 07:57:00,
2013-07-24 01:02:00,84.2,59.9,27.35,North,0,1.1,1.1,44,0.00,,,0.00,WUHU216HW,2013-07-24 08:02:00,
2013-07-24 01:07:00,84.1,60.4,27.35,NW,315,0.4,1.1,45,0.00,,,0.00,WUHU216HW,2013-07-24 08:07:00,
2013-07-24 01:12:00,83.9,60.2,27.34,SW,225,0.0,1.1,45,0.00,,,0.00,WUHU216HW,2013-07-24 08:12:00,
2013-07-24 01:17:00,83.9,60.2,27.34,WSW,248,0.0,0.4,45,0.00,,,0.00,WUHU216HW,2013-07-24 08:17:00,
2013-07-24 01:22:00,83.9,60.2,27.34,West,270,0.0,0.2,45,0.00,,,0.00,WUHU216HW,2013-07-24 08:22:00,
2013-07-24 01:27:00,83.9,60.2,27.35,West,270,0.0,0.2,45,0.00,,,0.00,WUHU216HW,2013-07-24 08:27:00,
2013-07-24 01:32:00,83.9,60.2,27.35,West,270,0.0,0.0,45,0.00,,,0.00,WUHU216HW,2013-07-24 08:32:00,
2013-07-24 01:37:00,83.9,60.2,27.35,NW,315,0.0,0.0,45,0.00,,,0.00,WUHU216HW,2013-07-24 08:37:00,
2013-07-24 01:42:00,83.9,60.2,27.35,NW,315,0.0,0.0,45,0.00,,,0.00,WUHU216HW,2013-07-24 08:42:00,
2013-07-24 01:47:00,83.7,60.0,27.35,NNW,338,0.0,0.0,45,0.00,,,0.00,WUHU216HW,2013-07-24 08:47:00,
2013-07-24 01:52:00,83.7,60.0,27.35,NNW,338,0.0,0.0,45,0.00,,,0.00,WUHU216HW,2013-07-24 08:52:00,
2013-07-24 01:57:00,83.5,60.5,27.35,NNW,338,0.0,0.0,46,0.00,,,0.00,WUHU216HW,2013-07-24 08:57:00,
2013-07-24 02:02:00,83.3,60.3,27.35,NNW,338,0.0,0.2,46,0.00,,,0.00,WUHU216HW,2013-07-24 09:02:00,
2013-07-24 02:07:00,83.2,60.1,27.35,NNW,338,0.0,0.2,46,0.00,,,0.00,WUHU216HW,2013-07-24 09:07:00,
2013-07-24 02:12:00,83.2,60.1,27.34,NNW,338,0.2,0.2,46,0.00,,,0.00,WUHU216HW,2013-07-24 09:12:00,
2013-07-24 02:17:00,82.8,59.9,27.35,NNW,338,0.0,0.2,46,0.00,,,0.00,WUHU216HW,2013-07-24 09:17:00,
2013-07-24 02:22:00,82.8,60.4,27.35,NNW,338,0.0,0.2,47,0.00,,,0.00,WUHU216HW,2013-07-24 09:22:00,
2013-07-24 02:27:00,82.8,60.4,27.34,NNW,338,0.0,0.0,47,0.00,,,0.00,WUHU216HW,2013-07-24 09:27:00,
2013-07-24 02:32:00,82.8,60.4,27.35,NNW,338,0.0,0.0,47,0.00,,,0.00,WUHU216HW,2013-07-24 09:32:00,
2013-07-24 02:37:00,82.8,60.4,27.35,NNW,338,0.0,0.0,47,0.00,,,0.00,WUHU216HW,2013-07-24 09:37:00,
2013-07-24 02:42:00,82.6,60.3,27.35,NNW,338,0.0,0.0,47,0.00,,,0.00,WUHU216HW,2013-07-24 09:42:00,
2013-07-24 02:47:00,82.6,60.3,27.35,NNW,338,0.0,0.0,47,0.00,,,0.00,WUHU216HW,2013-07-24 09:47:00,
2013-07-24 02:52:00,82.6,60.3,27.35,NNW,338,0.0,0.0,47,0.00,,,0.00,WUHU216HW,2013-07-24 09:52:00,
2013-07-24 02:57:00,82.4,60.1,27.35,NNW,338,0.0,0.0,47,0.00,,,0.00,WUHU216HW,2013-07-24 09:57:00,
2013-07-24 03:02:00,82.4,60.1,27.35,North,0,0.7,0.7,47,0.00,,,0.00,WUHU216HW,2013-07-24 10:02:00,
2013-07-24 03:07:00,82.3,60.6,27.35,NNW,338,0.4,0.7,48,0.00,,,0.00,WUHU216HW,2013-07-24 10:07:00,
2013-07-24 03:12:00,82.1,60.4,27.35,NNW,338,0.0,0.4,48,0.00,,,0.00,WUHU216HW,2013-07-24 10:12:00,
2013-07-24 03:17:00,82.1,62.1,27.35,NNW,338,0.0,0.0,51,0.00,,,0.00,WUHU216HW,2013-07-24 10:17:00,
2013-07-24 03:22:00,81.9,62.5,27.35,NNW,338,0.0,0.0,52,0.00,,,0.00,WUHU216HW,2013-07-24 10:22:00,
2013-07-24 03:27:00,81.7,61.8,27.35,NNW,338,0.0,0.0,51,0.00,,,0.00,WUHU216HW,2013-07-24 10:27:00,
2013-07-24 03:32:00,81.5,61.1,27.35,NNW,338,0.0,0.0,50,0.00,,,0.00,WUHU216HW,2013-07-24 10:32:00,
2013-07-24 03:37:00,81.4,60.9,27.35,NNW,338,0.0,0.0,50,0.00,,,0.00,WUHU216HW,2013-07-24 10:37:00,
2013-07-24 03:42:00,81.4,60.9,27.35,NNW,338,0.0,0.0,50,0.00,,,0.00,WUHU216HW,2013-07-24 10:42:00,
2013-07-24 03:47:00,81.4,60.9,27.35,NNW,338,0.0,0.0,50,0.00,,,0.00,WUHU216HW,2013-07-24 10:47:00,
2013-07-24 03:52:00,81.4,60.9,27.35,NNW,338,0.0,0.0,50,0.00,,,0.00,WUHU216HW,2013-07-24 10:52:00,
2013-07-24 03:57:00,81.2,61.3,27.35,NNW,338,0.0,0.0,51,0.00,,,0.00,WUHU216HW,2013-07-24 10:57:00,
2013-07-24 04:02:00,81.0,61.1,27.35,North,0,0.0,0.4,51,0.00,,,0.00,WUHU216HW,2013-07-24 11:02:00,
2013-07-24 04:07:00,81.0,61.1,27.35,SE,135,0.0,0.4,51,0.00,,,0.00,WUHU216HW,2013-07-24 11:07:00,
2013-07-24 04:12:00,80.8,61.0,27.35,SE,135,0.0,0.2,51,0.00,,,0.00,WUHU216HW,2013-07-24 11:12:00,
2013-07-24 04:17:00,80.8,61.0,27.35,SSE,158,0.0,0.0,51,0.00,,,0.00,WUHU216HW,2013-07-24 11:17:00,
2013-07-24 04:22:00,80.8,61.0,27.35,SE,135,0.0,0.0,51,0.00,,,0.00,WUHU216HW,2013-07-24 11:22:00,
2013-07-24 04:27:00,80.6,61.4,27.34,SE,135,0.0,0.0,52,0.00,,,0.00,WUHU216HW,2013-07-24 11:27:00,
2013-07-24 04:32:00,80.6,61.4,27.34,SE,135,0.0,0.0,52,0.00,,,0.00,WUHU216HW,2013-07-24 11:32:00,
2013-07-24 04:37:00,80.6,61.4,27.34,SE,135,0.0,0.0,52,0.00,,,0.00,WUHU216HW,2013-07-24 11:37:00,
2013-07-24 04:42:00,80.5,61.2,27.34,SE,135,0.0,0.0,52,0.00,,,0.00,WUHU216HW,2013-07-24 11:42:00,
2013-07-24 04:47:00,80.5,61.2,27.34,SE,135,0.0,0.0,52,0.00,,,0.00,WUHU216HW,2013-07-24 11:47:00,
2013-07-24 04:52:00,80.3,61.0,27.34,SE,135,0.0,0.0,52,0.00,,,0.00,WUHU216HW,2013-07-24 11:52:00,
2013-07-24 04:57:00,80.1,61.4,27.34,SE,135,0.0,0.0,53,0.00,,,0.00,WUHU216HW,2013-07-24 11:57:00,
2013-07-24 05:02:00,80.1,61.4,27.35,SE,135,0.0,0.0,53,0.00,,,0.00,WUHU216HW,2013-07-24 12:02:00,
2013-07-24 05:07:00,79.9,61.2,27.35,SE,135,0.0,0.0,53,0.00,,,0.00,WUHU216HW,2013-07-24 12:07:00,
2013-07-24 05:12:00,79.7,61.0,27.34,SE,135,0.0,0.0,53,0.00,,,0.00,WUHU216HW,2013-07-24 12:12:00,
2013-07-24 05:17:00,79.7,61.0,27.35,SE,135,0.0,0.0,53,0.00,,,0.00,WUHU216HW,2013-07-24 12:17:00,
2013-07-24 05:22:00,79.7,61.0,27.35,SE,135,0.4,0.4,53,0.00,,,0.00,WUHU216HW,2013-07-24 12:22:00,
2013-07-24 05:27:00,79.7,61.6,27.35,SE,135,0.0,0.4,54,0.00,,,0.00,WUHU216HW,2013-07-24 12:27:00,
2013-07-24 05:32:00,79.7,61.6,27.35,SE,135,0.0,0.2,54,0.00,,,0.00,WUHU216HW,2013-07-24 12:32:00,
2013-07-24 05:37:00,79.9,61.7,27.35,SE,135,0.0,0.0,54,0.00,,,0.00,WUHU216HW,2013-07-24 12:37:00,
2013-07-24 05:42:00,79.9,61.7,27.35,SE,135,0.0,0.0,54,0.00,,,0.00,WUHU216HW,2013-07-24 12:42:00,
2013-07-24 05:47:00,79.9,61.7,27.35,SE,135,0.0,0.0,54,0.00,,,0.00,WUHU216HW,2013-07-24 12:47:00,
2013-07-24 05:52:00,79.9,61.7,27.35,SE,135,0.0,0.0,54,0.00,,,0.00,WUHU216HW,2013-07-24 12:52:00,
2013-07-24 05:57:00,79.9,61.7,27.35,SE,135,0.0,0.0,54,0.00,,,0.00,WUHU216HW,2013-07-24 12:57:00,
2013-07-24 06:02:00,79.9,61.7,27.34,SE,135,0.0,0.0,54,0.00,,,0.00,WUHU216HW,2013-07-24 13:02:00,
2013-07-24 06:07:00,79.9,61.7,27.34,SE,135,0.0,0.0,54,0.00,,,0.00,WUHU216HW,2013-07-24 13:07:00,
2013-07-24 06:12:00,79.9,61.7,27.35,SE,135,0.0,0.0,54,0.00,,,0.00,WUHU216HW,2013-07-24 13:12:00,
2013-07-24 06:17:00,79.9,61.7,27.35,SE,135,0.0,0.0,54,0.00,,,0.00,WUHU216HW,2013-07-24 13:17:00,
2013-07-24 06:22:00,80.1,61.9,27.35,SE,135,0.4,1.1,54,0.00,,,0.00,WUHU216HW,2013-07-24 13:22:00,
2013-07-24 06:27:00,80.3,62.1,27.35,SSE,158,0.2,1.1,54,0.00,,,0.00,WUHU216HW,2013-07-24 13:27:00,
2013-07-24 06:32:00,80.3,62.1,27.35,SSE,158,0.0,1.1,54,0.00,,,0.00,WUHU216HW,2013-07-24 13:32:00,
2013-07-24 06:37:00,80.5,62.2,27.35,SE,135,0.0,1.6,54,0.00,,,0.00,WUHU216HW,2013-07-24 13:37:00,
2013-07-24 06:42:00,80.6,62.4,27.35,ESE,113,0.2,2.0,54,0.00,,,0.00,WUHU216HW,2013-07-24 13:42:00,
2013-07-24 06:47:00,80.8,62.6,27.35,SSE,158,0.2,2.0,54,0.00,,,0.00,WUHU216HW,2013-07-24 13:47:00,
2013-07-24 06:52:00,80.8,62.6,27.35,SE,135,0.0,1.3,54,0.00,,,0.00,WUHU216HW,2013-07-24 13:52:00,
2013-07-24 06:57:00,81.0,62.7,27.35,SE,135,0.7,1.3,54,0.00,,,0.00,WUHU216HW,2013-07-24 13:57:00,
2013-07-24 07:02:00,81.0,62.7,27.35,ESE,113,0.4,1.8,54,0.00,,,0.00,WUHU216HW,2013-07-24 14:02:00,
2013-07-24 07:07:00,81.4,63.0,27.36,SE,135,0.7,1.8,54,0.00,,,0.00,WUHU216HW,2013-07-24 14:07:00,
2013-07-24 07:12:00,81.4,63.0,27.36,SE,135,1.8,1.8,54,0.00,,,0.00,WUHU216HW,2013-07-24 14:12:00,
2013-07-24 07:17:00,81.5,63.2,27.36,SSE,158,0.2,1.8,54,0.00,,,0.00,WUHU216HW,2013-07-24 14:17:00,
2013-07-24 07:22:00,81.7,63.4,27.36,SE,135,0.2,1.8,54,0.00,,,0.00,WUHU216HW,2013-07-24 14:22:00,
2013-07-24 07:27:00,81.7,62.8,27.37,SSE,158,0.0,1.8,53,0.00,,,0.00,WUHU216HW,2013-07-24 14:27:00,
2013-07-24 07:29:00,81.9,63.0,27.37,SSE,158,0.2,0.2,53,0.00,,,0.00,WUHU216HW,2013-07-24 14:29:00,
2013-07-24 07:32:00,81.9,63.0,27.37,SSE,158,0.2,1.3,53,0.00,,,0.00,WUHU216HW,2013-07-24 14:32:00,
2013-07-24 07:37:00,81.9,63.0,27.37,SSE,158,0.2,0.9,53,0.00,,,0.00,WUHU216HW,2013-07-24 14:37:00,
2013-07-24 07:59:00,82.4,63.0,27.37,ESE,113,1.1,1.1,52,0.00,,,0.00,WUHU216HW,2013-07-24 14:59:00,
2013-07-24 08:04:00,82.4,63.0,27.38,SE,135,0.0,1.6,52,0.00,,,0.00,WUHU216HW,2013-07-24 15:04:00,
2013-07-24 08:09:00,82.6,63.2,27.37,SSW,203,0.2,1.6,52,0.00,,,0.00,WUHU216HW,2013-07-24 15:09:00,
2013-07-24 08:14:00,83.0,63.6,27.37,SSE,158,0.4,0.4,52,0.00,,,0.00,WUHU216HW,2013-07-24 15:14:00,
2013-07-24 08:19:00,83.0,63.6,27.37,SW,225,0.2,0.9,52,0.00,,,0.00,WUHU216HW,2013-07-24 15:19:00,
2013-07-24 08:24:00,83.2,63.2,27.37,SSE,158,0.4,1.6,51,0.00,,,0.00,WUHU216HW,2013-07-24 15:24:00,
2013-07-24 08:29:00,83.3,63.4,27.37,SW,225,0.2,1.6,51,0.00,,,0.00,WUHU216HW,2013-07-24 15:29:00,
2013-07-24 08:34:00,83.5,63.6,27.37,WSW,248,0.0,0.7,51,0.00,,,0.00,WUHU216HW,2013-07-24 15:34:00,
2013-07-24 08:39:00,83.7,63.7,27.37,South,180,1.1,1.1,51,0.00,,,0.00,WUHU216HW,2013-07-24 15:39:00,
2013-07-24 08:44:00,84.1,64.1,27.37,SE,135,0.2,1.1,51,0.00,,,0.00,WUHU216HW,2013-07-24 15:44:00,
2013-07-24 08:49:00,84.2,63.7,27.37,SSW,203,0.2,1.1,50,0.00,,,0.00,WUHU216HW,2013-07-24 15:49:00,
2013-07-24 08:54:00,84.4,63.9,27.38,SE,135,0.4,1.6,50,0.00,,,0.00,WUHU216HW,2013-07-24 15:54:00,
2013-07-24 08:59:00,84.6,64.1,27.38,WNW,293,0.0,1.6,50,0.00,,,0.00,WUHU216HW,2013-07-24 15:59:00,
2013-07-24 09:04:00,84.6,64.1,27.38,ESE,113,1.6,1.6,50,0.00,,,0.00,WUHU216HW,2013-07-24 16:04:00,
2013-07-24 09:09:00,84.6,64.1,27.38,ENE,68,1.6,1.6,50,0.00,,,0.00,WUHU216HW,2013-07-24 16:09:00,
2013-07-24 09:14:00,85.0,63.7,27.38,SE,135,0.4,1.6,49,0.00,,,0.00,WUHU216HW,2013-07-24 16:14:00,
2013-07-24 09:19:00,85.1,63.9,27.38,WSW,248,1.1,1.1,49,0.00,,,0.00,WUHU216HW,2013-07-24 16:19:00,
2013-07-24 09:24:00,85.1,63.9,27.38,NW,315,0.0,1.1,49,0.00,,,0.00,WUHU216HW,2013-07-24 16:24:00,
2013-07-24 09:29:00,85.1,63.9,27.38,SE,135,0.4,0.4,49,0.00,,,0.00,WUHU216HW,2013-07-24 16:29:00,
2013-07-24 09:34:00,85.1,63.9,27.38,SSE,158,0.9,0.9,49,0.00,,,0.00,WUHU216HW,2013-07-24 16:34:00,
2013-07-24 09:35:00,85.1,63.9,27.38,SSE,158,0.9,0.9,49,0.00,,,0.00,WUHU216HW,2013-07-24 16:35:00,
2013-07-24 09:40:00,85.3,64.1,27.38,SW,225,1.3,1.3,49,0.00,,,0.00,WUHU216HW,2013-07-24 16:40:00,
2013-07-24 09:45:00,85.7,64.4,27.38,SSW,203,0.9,1.3,49,0.00,,,0.00,WUHU216HW,2013-07-24 16:45:00,
2013-07-24 09:50:00,85.7,63.7,27.38,East,90,0.2,1.1,48,0.00,,,0.00,WUHU216HW,2013-07-24 16:50:00,
2013-07-24 09:55:00,85.9,63.9,27.38,South,180,0.0,1.1,48,0.00,,,0.00,WUHU216HW,2013-07-24 16:55:00,
2013-07-24 10:00:00,85.7,63.7,27.38,ENE,68,0.4,0.4,48,0.00,,,0.00,WUHU216HW,2013-07-24 17:00:00,
2013-07-24 10:05:00,85.9,63.9,27.38,South,180,0.4,1.1,48,0.00,,,0.00,WUHU216HW,2013-07-24 17:05:00,
2013-07-24 10:10:00,86.0,64.1,27.38,ENE,68,0.4,1.6,48,0.00,,,0.00,WUHU216HW,2013-07-24 17:10:00,
2013-07-24 10:15:00,86.2,63.6,27.38,SW,225,0.9,1.8,47,0.00,,,0.00,WUHU216HW,2013-07-24 17:15:00,
2013-07-24 10:20:00,86.4,63.8,27.38,ESE,113,1.8,1.8,47,0.00,,,0.00,WUHU216HW,2013-07-24 17:20:00,
2013-07-24 10:25:00,86.6,63.9,27.38,SSW,203,1.1,1.8,47,0.00,,,0.00,WUHU216HW,2013-07-24 17:25:00,
2013-07-24 10:30:00,86.8,64.1,27.38,North,0,0.4,1.3,47,0.00,,,0.00,WUHU216HW,2013-07-24 17:30:00,
2013-07-24 10:35:00,86.9,63.6,27.38,ENE,68,0.4,1.3,46,0.00,,,0.00,WUHU216HW,2013-07-24 17:35:00,
2013-07-24 10:40:00,86.9,63.6,27.38,SE,135,1.8,1.8,46,0.00,,,0.00,WUHU216HW,2013-07-24 17:40:00,
2013-07-24 10:45:00,87.1,63.8,27.38,SE,135,0.9,1.8,46,0.00,,,0.00,WUHU216HW,2013-07-24 17:45:00,
2013-07-24 10:50:00,87.3,64.0,27.38,SE,135,1.1,2.2,46,0.00,,,0.00,WUHU216HW,2013-07-24 17:50:00,
2013-07-24 10:55:00,87.7,64.3,27.38,SSE,158,1.1,2.2,46,0.00,,,0.00,WUHU216HW,2013-07-24 17:55:00,
2013-07-24 11:00:00,87.7,63.6,27.38,WSW,248,0.0,1.8,45,0.00,,,0.00,WUHU216HW,2013-07-24 18:00:00,
2013-07-24 11:05:00,87.7,63.6,27.38,SE,135,2.0,2.0,45,0.00,,,0.00,WUHU216HW,2013-07-24 18:05:00,
2013-07-24 11:10:00,87.7,63.6,27.38,SE,135,1.8,2.0,45,0.00,,,0.00,WUHU216HW,2013-07-24 18:10:00,
2013-07-24 11:35:00,87.8,63.8,27.38,ENE,68,0.4,0.4,45,0.00,,,0.00,WUHU216HW,2013-07-24 18:35:00,
2013-07-24 11:40:00,87.8,63.8,27.38,ESE,113,1.1,1.1,45,0.00,,,0.00,WUHU216HW,2013-07-24 18:40:00,
2013-07-24 11:45:00,87.8,63.8,27.38,SE,135,0.9,2.2,45,0.00,,,0.00,WUHU216HW,2013-07-24 18:45:00,
2013-07-24 11:50:00,88.0,64.0,27.39,SSE,158,1.1,2.2,45,0.00,,,0.00,WUHU216HW,2013-07-24 18:50:00,
2013-07-24 11:55:00,88.2,64.1,27.38,SE,135,0.4,1.1,45,0.00,,,0.00,WUHU216HW,2013-07-24 18:55:00,
2013-07-24 12:00:00,88.4,63.6,27.38,SE,135,2.5,2.5,44,0.00,,,0.00,WUHU216HW,2013-07-24 19:00:00,
2013-07-24 12:05:00,88.6,63.8,27.38,South,180,0.4,2.5,44,0.00,,,0.00,WUHU216HW,2013-07-24 19:05:00,
2013-07-24 12:10:00,88.9,64.1,27.38,West,270,2.5,2.7,44,0.00,,,0.00,WUHU216HW,2013-07-24 19:10:00,
2013-07-24 12:15:00,89.3,64.4,27.38,SSE,158,2.9,3.1,44,0.00,,,0.00,WUHU216HW,2013-07-24 19:15:00,
2013-07-24 12:20:00,89.6,64.7,27.38,SW,225,3.1,3.1,44,0.00,,,0.00,WUHU216HW,2013-07-24 19:20:00,
2013-07-24 12:25:00,90.0,65.0,27.37,South,180,2.9,4.3,44,0.00,,,0.00,WUHU216HW,2013-07-24 19:25:00,
2013-07-24 12:30:00,90.2,64.5,27.37,SSE,158,2.2,4.3,43,0.00,,,0.00,WUHU216HW,2013-07-24 19:30:00,
2013-07-24 12:35:00,90.2,64.5,27.37,South,180,1.8,4.0,43,0.00,,,0.00,WUHU216HW,2013-07-24 19:35:00,
2013-07-24 13:00:00,91.1,64.7,27.36,South,180,0.9,0.9,42,0.00,,,0.00,WUHU216HW,2013-07-24 20:00:00,
2013-07-24 13:05:00,91.3,64.9,27.36,SE,135,2.7,2.7,42,0.00,,,0.00,WUHU216HW,2013-07-24 20:05:00,
2013-07-24 13:10:00,91.4,65.0,27.36,SW,225,2.2,2.7,42,0.00,,,0.00,WUHU216HW,2013-07-24 20:10:00,
2013-07-24 13:15:00,91.8,65.3,27.35,SSE,158,3.8,3.8,42,0.00,,,0.00,WUHU216HW,2013-07-24 20:15:00,
2013-07-24 13:20:00,91.8,65.3,27.35,SE,135,3.8,3.8,42,0.00,,,0.00,WUHU216HW,2013-07-24 20:20:00,
2013-07-24 13:25:00,92.0,64.9,27.35,ESE,113,0.4,3.8,41,0.00,,,0.00,WUHU216HW,2013-07-24 20:25:00,
2013-07-24 13:30:00,92.0,64.9,27.35,ESE,113,1.8,2.7,41,0.00,,,0.00,WUHU216HW,2013-07-24 20:30:00,
2013-07-24 13:35:00,91.8,64.7,27.35,WSW,248,2.0,2.7,41,0.00,,,0.00,WUHU216HW,2013-07-24 20:35:00,
2013-07-24 13:40:00,91.6,64.5,27.35,WSW,248,0.4,2.7,41,0.00,,,0.00,WUHU216HW,2013-07-24 20:40:00,
2013-07-24 13:45:00,91.8,64.7,27.35,WSW,248,1.3,3.4,41,0.00,,,0.00,WUHU216HW,2013-07-24 20:45:00,
2013-07-24 13:50:00,91.8,64.7,27.34,South,180,1.3,4.7,41,0.00,,,0.00,WUHU216HW,2013-07-24 20:50:00,
2013-07-24 13:55:00,91.8,64.7,27.34,SW,225,1.1,4.7,41,0.00,,,0.00,WUHU216HW,2013-07-24 20:55:00,
2013-07-24 14:00:00,92.0,64.9,27.34,West,270,0.7,4.5,41,0.00,,,0.00,WUHU216HW,2013-07-24 21:00:00,
2013-07-24 14:05:00,92.0,64.9,27.34,SW,225,2.5,2.9,41,0.00,,,0.00,WUHU216HW,2013-07-24 21:05:00,
2013-07-24 14:10:00,92.0,64.2,27.34,SW,225,3.1,3.1,40,0.00,,,0.00,WUHU216HW,2013-07-24 21:10:00,
2013-07-24 14:15:00,91.8,64.1,27.33,WSW,248,2.9,3.1,40,0.00,,,0.00,WUHU216HW,2013-07-24 21:15:00,
2013-07-24 14:20:00,91.8,64.7,27.33,NNE,23,1.1,2.9,41,0.00,,,0.00,WUHU216HW,2013-07-24 21:20:00,
2013-07-24 14:25:00,91.4,64.4,27.33,SE,135,1.6,2.9,41,0.00,,,0.00,WUHU216HW,2013-07-24 21:25:00,
2013-07-24 14:30:00,91.8,64.7,27.33,ESE,113,2.2,2.9,41,0.00,,,0.00,WUHU216HW,2013-07-24 21:30:00,
2013-07-24 14:35:00,91.8,64.7,27.32,NW,315,1.1,2.2,41,0.00,,,0.00,WUHU216HW,2013-07-24 21:35:00,
2013-07-24 14:40:00,91.6,64.5,27.32,North,0,0.4,2.2,41,0.00,,,0.00,WUHU216HW,2013-07-24 21:40:00,
2013-07-24 14:45:00,91.6,64.5,27.32,West,270,0.0,2.2,41,0.00,,,0.00,WUHU216HW,2013-07-24 21:45:00,
2013-07-24 14:50:00,91.4,64.4,27.32,NNW,338,2.5,2.5,41,0.00,,,0.00,WUHU216HW,2013-07-24 21:50:00,
2013-07-24 14:55:00,91.4,64.4,27.32,NW,315,0.4,2.9,41,0.00,,,0.00,WUHU216HW,2013-07-24 21:55:00,
2013-07-24 15:00:00,91.6,64.5,27.32,NNW,338,0.4,2.9,41,0.00,,,0.00,WUHU216HW,2013-07-24 22:00:00,
2013-07-24 15:05:00,92.0,64.2,27.32,West,270,1.3,2.0,40,0.00,,,0.00,WUHU216HW,2013-07-24 22:05:00,
2013-07-24 15:10:00,92.5,64.7,27.32,SSE,158,1.8,2.2,40,0.00,,,0.00,WUHU216HW,2013-07-24 22:10:00,
2013-07-24 15:15:00,92.9,65.0,27.31,SW,225,0.7,2.2,40,0.00,,,0.00,WUHU216HW,2013-07-24 22:15:00,
2013-07-24 15:20:00,93.6,64.9,27.31,SE,135,1.1,3.6,39,0.00,,,0.00,WUHU216HW,2013-07-24 22:20:00,
2013-07-24 15:25:00,93.8,64.2,27.31,WSW,248,2.0,3.6,38,0.00,,,0.00,WUHU216HW,2013-07-24 22:25:00,
2013-07-24 15:30:00,93.4,63.9,27.31,West,270,0.2,2.9,38,0.00,,,0.00,WUHU216HW,2013-07-24 22:30:00,
2013-07-24 15:35:00,93.2,63.7,27.30,WSW,248,0.9,2.2,38,0.00,,,0.00,WUHU216HW,2013-07-24 22:35:00,
2013-07-24 15:40:00,93.1,63.5,27.30,SSE,158,0.4,2.2,38,0.00,,,0.00,WUHU216HW,2013-07-24 22:40:00,
2013-07-24 15:45:00,93.2,63.7,27.30,WSW,248,3.4,3.4,38,0.00,,,0.00,WUHU216HW,2013-07-24 22:45:00,
2013-07-24 15:50:00,93.6,63.3,27.30,NW,315,2.0,3.8,37,0.00,,,0.00,WUHU216HW,2013-07-24 22:50:00,
2013-07-24 15:55:00,93.6,64.1,27.30,WNW,293,1.6,3.8,38,0.00,,,0.00,WUHU216HW,2013-07-24 22:55:00,
2013-07-24 16:00:00,93.8,62.6,27.30,WSW,248,2.2,2.9,36,0.00,,,0.00,WUHU216HW,2013-07-24 23:00:00,
2013-07-24 16:05:00,93.6,62.5,27.30,SW,225,2.2,3.1,36,0.00,,,0.00,WUHU216HW,2013-07-24 23:05:00,
2013-07-24 16:10:00,93.6,64.1,27.30,SW,225,3.1,3.1,38,0.00,,,0.00,WUHU216HW,2013-07-24 23:10:00,
2013-07-24 16:15:00,94.3,63.1,27.30,West,270,1.1,3.1,36,0.00,,,0.00,WUHU216HW,2013-07-24 23:15:00,
2013-07-24 16:20:00,94.3,63.1,27.30,NW,315,1.6,1.6,36,0.00,,,0.00,WUHU216HW,2013-07-24 23:20:00,
2013-07-24 16:25:00,94.0,62.7,27.30,NW,315,1.1,2.5,36,0.00,,,0.00,WUHU216HW,2013-07-24 23:25:00,
2013-07-24 16:30:00,93.6,62.5,27.29,WNW,293,1.6,2.5,36,0.00,,,0.00,WUHU216HW,2013-07-24 23:30:00,
2013-07-24 16:35:00,93.4,62.3,27.29,SW,225,1.6,2.5,36,0.00,,,0.00,WUHU216HW,2013-07-24 23:35:00,
2013-07-24 16:40:00,93.2,62.1,27.29,West,270,1.3,2.5,36,0.00,,,0.00,WUHU216HW,2013-07-24 23:40:00,
2013-07-24 16:45:00,93.1,61.9,27.29,WNW,293,2.7,3.1,36,0.00,,,0.00,WUHU216HW,2013-07-24 23:45:00,
2013-07-24 16:50:00,92.9,61.8,27.29,NW,315,1.8,3.1,36,0.00,,,0.00,WUHU216HW,2013-07-24 23:50:00,
2013-07-24 16:55:00,92.9,62.7,27.29,West,270,0.9,2.5,37,0.00,,,0.00,WUHU216HW,2013-07-24 23:55:00,
2013-07-24 17:00:00,93.1,61.9,27.29,WSW,248,2.5,2.5,36,0.00,,,0.00,WUHU216HW,2013-07-25 00:00:00,
2013-07-24 17:05:00,92.9,61.8,27.29,WSW,248,2.7,3.1,36,0.00,,,0.00,WUHU216HW,2013-07-25 00:05:00,
2013-07-24 17:10:00,92.9,61.8,27.28,West,270,1.8,3.1,36,0.00,,,0.00,WUHU216HW,2013-07-25 00:10:00,
2013-07-24 17:15:00,92.9,62.7,27.28,SW,225,1.8,3.1,37,0.00,,,0.00,WUHU216HW,2013-07-25 00:15:00,
2013-07-24 17:20:00,92.9,61.8,27.28,SW,225,1.3,3.1,36,0.00,,,0.00,WUHU216HW,2013-07-25 00:20:00,
2013-07-24 17:21:00,92.7,62.5,27.28,WSW,248,1.3,1.3,37,0.00,,,0.00,WUHU216HW,2013-07-25 00:21:00,
2013-07-24 17:25:00,92.7,62.5,27.28,WSW,248,1.3,2.2,37,0.00,,,0.00,WUHU216HW,2013-07-25 00:25:00,
2013-07-24 17:30:00,92.7,62.5,27.28,WSW,248,1.3,1.3,37,0.00,,,0.00,WUHU216HW,2013-07-25 00:30:00,
2013-07-24 17:51:00,92.7,61.7,27.28,SSW,203,1.1,1.1,36,0.00,,,0.00,WUHU216HW,2013-07-25 00:51:00,
2013-07-24 17:56:00,92.9,61.8,27.29,West,270,2.0,2.0,36,0.00,,,0.00,WUHU216HW,2013-07-25 00:56:00,
2013-07-24 18:02:00,93.1,61.9,27.29,WSW,248,1.1,2.0,36,0.00,,,0.00,WUHU216HW,2013-07-25 01:02:00,
2013-07-24 18:07:00,93.2,62.1,27.29,WSW,248,1.6,2.5,36,0.00,,,0.00,WUHU216HW,2013-07-25 01:07:00,
2013-07-24 18:12:00,93.6,63.3,27.29,SW,225,2.2,2.7,37,0.00,,,0.00,WUHU216HW,2013-07-25 01:12:00,
2013-07-24 18:17:00,94.0,62.7,27.29,WSW,248,3.1,3.4,36,0.00,,,0.00,WUHU216HW,2013-07-25 01:17:00,
2013-07-24 18:22:00,93.6,64.1,27.29,WSW,248,1.1,3.4,38,0.00,,,0.00,WUHU216HW,2013-07-25 01:22:00,
2013-07-24 18:27:00,93.2,63.7,27.29,WSW,248,2.2,2.5,38,0.00,,,0.00,WUHU216HW,2013-07-25 01:27:00,
2013-07-24 18:32:00,93.1,63.5,27.30,SW,225,1.3,2.5,38,0.00,,,0.00,WUHU216HW,2013-07-25 01:32:00,
2013-07-24 18:37:00,93.2,63.7,27.30,SW,225,1.1,2.5,38,0.00,,,0.00,WUHU216HW,2013-07-25 01:37:00,
2013-07-24 18:42:00,93.2,63.7,27.30,ESE,113,1.1,2.5,38,0.00,,,0.00,WUHU216HW,2013-07-25 01:42:00,
2013-07-24 18:47:00,92.9,63.4,27.30,WSW,248,0.7,2.7,38,0.00,,,0.00,WUHU216HW,2013-07-25 01:47:00,
2013-07-24 18:52:00,92.7,63.3,27.30,SW,225,1.6,2.7,38,0.00,,,0.00,WUHU216HW,2013-07-25 01:52:00,
2013-07-24 18:57:00,92.5,63.1,27.30,South,180,0.0,1.6,38,0.00,,,0.00,WUHU216HW,2013-07-25 01:57:00,
2013-07-24 19:02:00,92.5,63.9,27.31,SW,225,1.1,1.8,39,0.00,,,0.00,WUHU216HW,2013-07-25 02:02:00,
2013-07-24 19:07:00,92.3,63.7,27.31,WSW,248,0.0,1.8,39,0.00,,,0.00,WUHU216HW,2013-07-25 02:07:00,
2013-07-24 19:12:00,92.2,63.5,27.32,SW,225,1.1,1.3,39,0.00,,,0.00,WUHU216HW,2013-07-25 02:12:00,
2013-07-24 19:17:00,92.0,63.5,27.32,SE,135,1.8,1.8,39,0.00,,,0.00,WUHU216HW,2013-07-25 02:17:00,
2013-07-24 19:22:00,90.9,65.8,27.33,SE,135,1.8,7.6,44,0.00,,,0.00,WUHU216HW,2013-07-25 02:22:00,
2013-07-24 19:27:00,89.6,68.0,27.34,NNE,23,6.3,7.6,49,0.00,,,0.00,WUHU216HW,2013-07-25 02:27:00,
2013-07-24 19:32:00,88.2,67.9,27.34,North,0,7.2,7.2,51,0.01,,,0.01,WUHU216HW,2013-07-25 02:32:00,
2013-07-24 19:37:00,86.0,68.0,27.34,NNW,338,8.7,8.7,55,0.02,,,0.02,WUHU216HW,2013-07-25 02:37:00,
2013-07-24 19:42:00,83.9,67.1,27.35,NW,315,2.9,8.7,57,0.02,,,0.02,WUHU216HW,2013-07-25 02:42:00,
2013-07-24 19:47:00,82.6,66.2,27.35,NW,315,2.0,5.1,58,0.02,,,0.02,WUHU216HW,2013-07-25 02:47:00,
2013-07-24 19:52:00,82.1,66.3,27.35,NNE,23,1.8,3.1,59,0.02,,,0.02,WUHU216HW,2013-07-25 02:52:00,
2013-07-24 19:57:00,82.3,66.4,27.35,NW,315,1.1,1.8,59,0.02,,,0.02,WUHU216HW,2013-07-25 02:57:00,
2013-07-24 20:02:00,82.3,66.0,27.35,North,0,1.8,4.3,58,0.02,,,0.02,WUHU216HW,2013-07-25 03:02:00,
2013-07-24 20:07:00,82.6,65.8,27.35,North,0,2.7,4.3,57,0.02,,,0.02,WUHU216HW,2013-07-25 03:07:00,
2013-07-24 20:12:00,83.0,65.6,27.34,South,180,0.0,3.4,56,0.02,,,0.02,WUHU216HW,2013-07-25 03:12:00,
2013-07-24 20:17:00,83.0,65.6,27.34,SSW,203,0.4,3.4,56,0.02,,,0.02,WUHU216HW,2013-07-25 03:17:00,
2013-07-24 20:22:00,83.2,66.8,27.34,SE,135,0.4,0.9,58,0.02,,,0.02,WUHU216HW,2013-07-25 03:22:00,
2013-07-24 20:27:00,83.2,66.8,27.35,ESE,113,0.4,0.9,58,0.02,,,0.02,WUHU216HW,2013-07-25 03:27:00,
2013-07-24 20:33:00,83.2,66.3,27.35,ESE,113,0.4,2.9,57,0.01,,,0.02,WUHU216HW,2013-07-25 03:33:00,
2013-07-24 20:38:00,83.3,67.0,27.35,NE,45,0.0,2.9,58,0.00,,,0.02,WUHU216HW,2013-07-25 03:38:00,
2013-07-24 20:43:00,83.3,67.0,27.36,ESE,113,1.3,1.3,58,0.00,,,0.02,WUHU216HW,2013-07-25 03:43:00,
2013-07-24 20:48:00,83.2,66.8,27.36,NE,45,0.0,1.3,58,0.00,,,0.02,WUHU216HW,2013-07-25 03:48:00,
2013-07-24 20:53:00,82.8,67.0,27.35,ESE,113,0.0,1.3,59,0.00,,,0.02,WUHU216HW,2013-07-25 03:53:00,
2013-07-24 20:58:00,82.6,66.8,27.36,NE,45,0.4,1.3,59,0.00,,,0.02,WUHU216HW,2013-07-25 03:58:00,
2013-07-24 21:01:00,82.6,66.8,27.36,NE,45,0.0,0.4,59,0.00,,,0.02,WUHU216HW,2013-07-25 04:01:00,
2013-07-24 21:02:00,82.4,66.6,27.36,NE,45,0.0,0.4,59,0.01,,,0.02,WUHU216HW,2013-07-25 04:02:00,
2013-07-24 21:07:00,82.4,67.1,27.36,NNE,23,0.0,1.1,60,0.01,,,0.03,WUHU216HW,2013-07-25 04:07:00,
2013-07-24 21:12:00,82.3,67.4,27.37,NNE,23,0.0,1.1,61,0.01,,,0.03,WUHU216HW,2013-07-25 04:12:00,
2013-07-24 21:17:00,82.3,67.9,27.37,NNE,23,0.0,1.1,62,0.01,,,0.03,WUHU216HW,2013-07-25 04:17:00,
2013-07-24 21:22:00,82.3,67.9,27.36,NE,45,0.0,0.0,62,0.01,,,0.03,WUHU216HW,2013-07-25 04:22:00,
2013-07-24 21:27:00,82.1,67.7,27.37,NE,45,0.0,0.0,62,0.01,,,0.03,WUHU216HW,2013-07-25 04:27:00,
2013-07-24 21:32:00,82.1,68.1,27.36,SE,135,0.0,0.0,63,0.01,,,0.03,WUHU216HW,2013-07-25 04:32:00,
2013-07-24 21:37:00,82.3,68.3,27.36,SE,135,0.0,0.0,63,0.01,,,0.03,WUHU216HW,2013-07-25 04:37:00,
2013-07-24 21:42:00,82.1,69.0,27.36,SE,135,0.0,0.0,65,0.01,,,0.03,WUHU216HW,2013-07-25 04:42:00,
2013-07-24 21:47:00,82.1,69.5,27.37,ESE,113,0.0,0.0,66,0.01,,,0.03,WUHU216HW,2013-07-25 04:47:00,
2013-07-24 21:52:00,81.9,69.4,27.36,NNE,23,0.0,0.0,66,0.01,,,0.03,WUHU216HW,2013-07-25 04:52:00,
2013-07-24 21:57:00,81.7,69.2,27.36,North,0,0.9,1.1,66,0.01,,,0.03,WUHU216HW,2013-07-25 04:57:00,
2013-07-24 22:02:00,81.7,69.2,27.36,NNE,23,0.9,1.8,66,0.00,,,0.03,WUHU216HW,2013-07-25 05:02:00,
2013-07-24 22:07:00,81.4,68.4,27.36,ENE,68,0.0,1.8,65,0.00,,,0.03,WUHU216HW,2013-07-25 05:07:00,
2013-07-24 22:12:00,81.4,68.4,27.36,SE,135,0.4,1.6,65,0.00,,,0.03,WUHU216HW,2013-07-25 05:12:00,
2013-07-24 22:17:00,81.5,68.6,27.36,SE,135,0.4,1.1,65,0.00,,,0.03,WUHU216HW,2013-07-25 05:17:00,
2013-07-24 22:22:00,81.5,68.1,27.36,SE,135,0.0,1.1,64,0.00,,,0.03,WUHU216HW,2013-07-25 05:22:00,
2013-07-24 22:27:00,81.5,68.1,27.36,SE,135,0.0,0.4,64,0.00,,,0.03,WUHU216HW,2013-07-25 05:27:00,
2013-07-24 22:52:00,81.4,69.8,27.36,SW,225,0.0,0.0,68,0.00,,,0.03,WUHU216HW,2013-07-25 05:52:00,
2013-07-24 22:57:00,81.4,69.8,27.36,SW,225,0.0,0.0,68,0.00,,,0.03,WUHU216HW,2013-07-25 05:57:00,
2013-07-24 23:02:00,81.2,70.5,27.36,SW,225,0.0,0.0,70,0.00,,,0.03,WUHU216HW,2013-07-25 06:02:00,
2013-07-24 23:07:00,81.2,70.5,27.35,SW,225,0.0,0.0,70,0.00,,,0.03,WUHU216HW,2013-07-25 06:07:00,
2013-07-24 23:12:00,81.0,70.4,27.35,SW,225,0.0,0.0,70,0.00,,,0.03,WUHU216HW,2013-07-25 06:12:00,
2013-07-24 23:17:00,81.0,70.4,27.36,SW,225,0.0,0.0,70,0.00,,,0.03,WUHU216HW,2013-07-25 06:17:00,
2013-07-24 23:22:00,81.0,70.7,27.36,WNW,293,0.0,0.0,71,0.00,,,0.03,WUHU216HW,2013-07-25 06:22:00,
2013-07-24 23:27:00,80.6,70.4,27.36,WNW,293,0.0,0.0,71,0.00,,,0.03,WUHU216HW,2013-07-25 06:27:00,
2013-07-24 23:32:00,80.5,70.2,27.36,WNW,293,0.0,0.0,71,0.00,,,0.03,WUHU216HW,2013-07-25 06:32:00,
2013-07-24 23:37:00,80.5,70.7,27.36,WNW,293,0.0,0.0,72,0.00,,,0.03,WUHU216HW,2013-07-25 06:37:00,
2013-07-24 23:42:00,80.3,70.5,27.36,WNW,293,0.0,0.0,72,0.00,,,0.03,WUHU216HW,2013-07-25 06:42:00,
2013-07-24 23:47:00,80.3,70.0,27.36,WNW,293,0.0,0.0,71,0.00,,,0.03,WUHU216HW,2013-07-25 06:47:00,
2013-07-24 23:52:00,80.3,70.0,27.36,WNW,293,0.0,0.0,71,0.00,,,0.03,WUHU216HW,2013-07-25 06:52:00,